createdAt,value
2017-08-03T00:00:54.311Z,80.50
2017-08-03T00:03:20.634Z,80.60
2017-08-03T00:05:46.904Z,80.60
2017-08-03T00:08:13.199Z,80.80
2017-08-03T00:10:39.468Z,80.90
2017-08-03T00:13:05.772Z,80.90
2017-08-03T00:15:32.383Z,81.20
2017-08-03T00:17:58.652Z,81.20
2017-08-03T00:20:24.935Z,81.70
2017-08-03T00:22:51.219Z,81.60
2017-08-03T00:25:17.505Z,81.40
2017-08-03T00:27:43.804Z,81.70
2017-08-03T00:30:10.127Z,81.90
2017-08-03T00:32:37.204Z,82.10
2017-08-03T00:35:03.502Z,82.10
2017-08-03T00:37:30.556Z,81.20
2017-08-03T00:39:57.812Z,81.10
2017-08-03T00:42:24.843Z,80.80
2017-08-03T00:44:51.144Z,80.80
2017-08-03T00:47:17.418Z,79.80
2017-08-03T00:49:44.461Z,78.80
2017-08-03T00:52:11.462Z,78.50
2017-08-03T00:54:37.748Z,78.50
2017-08-03T00:57:04.099Z,78.50
2017-08-03T00:59:30.404Z,78.20
2017-08-03T01:01:57.488Z,78.20
2017-08-03T01:04:23.815Z,78.20
2017-08-03T01:06:50.096Z,77.70
2017-08-03T01:09:17.126Z,77.80
2017-08-03T01:11:43.604Z,77.80
2017-08-03T01:14:09.944Z,77.60
2017-08-03T01:16:36.251Z,77.60
2017-08-03T01:19:03.387Z,77.60
2017-08-03T01:21:30.433Z,77.70
2017-08-03T01:23:57.588Z,77.80
2017-08-03T01:26:23.875Z,77.70
2017-08-03T01:28:50.172Z,77.90
2017-08-03T01:31:16.480Z,78.00
2017-08-03T01:33:43.523Z,79.10
2017-08-03T01:36:10.588Z,79.00
2017-08-03T01:38:36.885Z,78.90
2017-08-03T01:41:03.195Z,79.20
2017-08-03T01:43:29.504Z,79.50
2017-08-03T01:45:55.797Z,79.70
2017-08-03T01:48:22.209Z,79.50
2017-08-03T01:50:48.487Z,80.40
2017-08-03T01:53:14.780Z,80.70
2017-08-03T01:55:41.096Z,80.90
2017-08-03T01:58:07.352Z,81.10
2017-08-03T02:00:33.710Z,81.20
2017-08-03T02:03:00.040Z,80.50
2017-08-03T02:05:26.335Z,80.40
2017-08-03T02:07:53.377Z,81.10
2017-08-03T02:10:19.722Z,81.10
2017-08-03T02:12:46.133Z,81.00
2017-08-03T02:15:13.157Z,80.80
2017-08-03T02:17:39.468Z,80.90
2017-08-03T02:20:05.865Z,81.40
2017-08-03T02:22:32.168Z,82.00
2017-08-03T02:24:59.220Z,83.20
2017-08-03T02:27:26.233Z,83.60
2017-08-03T02:29:52.529Z,83.50
2017-08-03T02:32:18.832Z,83.90
2017-08-03T02:34:45.896Z,84.30
2017-08-03T02:37:12.203Z,84.30
2017-08-03T02:39:38.504Z,84.20
2017-08-03T02:42:04.820Z,84.20
2017-08-03T02:44:31.108Z,84.80
2017-08-03T02:46:57.392Z,84.60
2017-08-03T02:49:23.752Z,84.60
2017-08-03T02:51:50.760Z,84.90
2017-08-03T02:54:17.072Z,84.90
2017-08-03T02:56:43.352Z,84.60
2017-08-03T02:59:10.471Z,84.50
2017-08-03T03:01:36.759Z,84.40
2017-08-03T03:04:03.075Z,84.40
2017-08-03T03:06:29.406Z,84.20
2017-08-03T03:08:56.419Z,84.00
2017-08-03T03:11:22.737Z,84.00
2017-08-03T03:13:49.024Z,84.00
2017-08-03T03:16:15.307Z,84.10
2017-08-03T03:18:41.633Z,84.10
2017-08-03T03:21:07.935Z,84.30
2017-08-03T03:23:34.215Z,84.20
2017-08-03T03:26:01.483Z,84.10
2017-08-03T03:28:28.523Z,84.20
2017-08-03T03:30:55.548Z,84.60
2017-08-03T03:33:22.571Z,84.70
2017-08-03T03:35:48.891Z,84.60
2017-08-03T03:38:15.168Z,84.60
2017-08-03T03:40:41.456Z,84.60
2017-08-03T03:43:07.783Z,84.60
2017-08-03T03:45:34.601Z,84.80
2017-08-03T03:48:00.904Z,84.60
2017-08-03T03:50:34.252Z,84.60
2017-08-03T03:53:00.564Z,84.30
2017-08-03T03:55:26.888Z,84.10
2017-08-03T03:57:53.164Z,84.00
2017-08-03T04:00:20.195Z,84.00
2017-08-03T04:02:46.467Z,83.90
2017-08-03T04:05:13.475Z,83.80
2017-08-03T04:07:39.775Z,83.70
2017-08-03T04:10:06.057Z,83.40
2017-08-03T04:12:33.202Z,83.60
2017-08-03T04:14:59.501Z,82.80
2017-08-03T04:17:25.797Z,82.80
2017-08-03T04:19:52.148Z,83.10
2017-08-03T04:22:18.456Z,82.60
2017-08-03T04:24:44.776Z,82.50
2017-08-03T04:27:11.059Z,82.60
2017-08-03T04:29:37.344Z,82.00
2017-08-03T04:32:03.666Z,81.20
2017-08-03T04:34:29.988Z,81.50
2017-08-03T04:36:57.038Z,80.30
2017-08-03T04:39:24.075Z,80.40
2017-08-03T04:41:51.137Z,80.50
2017-08-03T04:44:18.143Z,80.60
2017-08-03T04:46:44.460Z,80.50
2017-08-03T04:49:10.755Z,80.60
2017-08-03T04:51:37.075Z,80.70
2017-08-03T04:54:03.375Z,80.70
2017-08-03T04:56:29.650Z,80.20
2017-08-03T04:58:55.954Z,79.90
2017-08-03T05:01:22.972Z,80.00
2017-08-03T05:03:50.089Z,80.20
2017-08-03T05:06:16.423Z,80.20
2017-08-03T05:08:42.752Z,80.00
2017-08-03T05:11:09.131Z,79.90
2017-08-03T05:13:35.431Z,79.80
2017-08-03T05:16:01.720Z,79.80
2017-08-03T05:18:28.048Z,80.10
2017-08-03T05:20:54.356Z,80.50
2017-08-03T05:23:21.382Z,80.90
2017-08-03T05:25:47.776Z,80.70
2017-08-03T05:28:14.192Z,80.70
2017-08-03T05:30:40.470Z,80.90
2017-08-03T05:33:07.540Z,80.40
2017-08-03T05:35:34.606Z,80.60
2017-08-03T05:38:00.891Z,80.50
2017-08-03T05:40:27.333Z,80.70
2017-08-03T05:42:54.379Z,81.00
2017-08-03T05:45:21.412Z,81.00
2017-08-03T05:47:47.709Z,81.00
2017-08-03T05:50:13.988Z,81.40
2017-08-03T05:52:40.304Z,81.10
2017-08-03T05:55:06.568Z,81.40
2017-08-03T05:57:32.840Z,81.30
2017-08-03T05:59:59.176Z,81.50
2017-08-03T06:02:25.465Z,81.80
2017-08-03T06:04:51.756Z,82.10
2017-08-03T06:07:18.041Z,81.70
2017-08-03T06:09:44.347Z,81.90
2017-08-03T06:12:10.616Z,81.90
2017-08-03T06:14:36.919Z,81.90
2017-08-03T06:17:03.240Z,81.90
2017-08-03T06:19:29.513Z,81.60
2017-08-03T06:21:55.812Z,80.90
2017-08-03T06:24:22.125Z,80.90
2017-08-03T06:26:48.455Z,80.70
2017-08-03T06:29:14.735Z,80.20
2017-08-03T06:31:41.056Z,80.10
2017-08-03T06:34:07.552Z,80.10
2017-08-03T06:36:34.032Z,80.10
2017-08-03T06:39:00.348Z,80.40
2017-08-03T06:41:26.649Z,80.40
2017-08-03T06:43:52.927Z,80.00
2017-08-03T06:46:19.240Z,79.30
2017-08-03T06:48:45.578Z,78.50
2017-08-03T06:51:11.934Z,77.70
2017-08-03T06:53:38.243Z,76.50
2017-08-03T06:56:04.608Z,75.70
2017-08-03T06:58:31.656Z,74.90
2017-08-03T07:00:58.700Z,73.70
2017-08-03T07:03:25.777Z,73.10
2017-08-03T07:05:52.058Z,73.00
2017-08-03T07:08:18.404Z,72.80
2017-08-03T07:10:45.468Z,72.10
2017-08-03T07:13:11.722Z,72.10
2017-08-03T07:15:38.071Z,72.50
2017-08-03T07:18:04.647Z,71.90
2017-08-03T07:20:30.960Z,71.50
2017-08-03T07:22:57.300Z,71.60
2017-08-03T07:25:23.619Z,72.30
2017-08-03T07:27:49.923Z,72.80
2017-08-03T07:30:16.221Z,72.40
2017-08-03T07:32:42.496Z,72.30
2017-08-03T07:35:08.771Z,72.90
2017-08-03T07:37:35.112Z,72.50
2017-08-03T07:40:01.417Z,72.20
2017-08-03T07:42:28.487Z,70.90
2017-08-03T07:44:54.791Z,70.80
2017-08-03T07:47:21.835Z,68.70
2017-08-03T07:49:48.136Z,68.50
2017-08-03T07:52:14.447Z,67.90
2017-08-03T07:54:40.783Z,68.80
2017-08-03T07:57:07.098Z,68.00
2017-08-03T07:59:33.445Z,67.60
2017-08-03T08:01:59.720Z,67.40
2017-08-03T08:04:26.756Z,67.50
2017-08-03T08:06:53.072Z,67.50
2017-08-03T08:09:19.368Z,68.20
2017-08-03T08:11:45.665Z,69.70
2017-08-03T08:14:12.743Z,73.30
2017-08-03T08:16:39.037Z,73.30
2017-08-03T08:19:05.332Z,74.90
2017-08-03T08:21:31.607Z,76.00
2017-08-03T08:23:57.959Z,77.20
2017-08-03T08:26:24.235Z,77.50
2017-08-03T08:28:50.671Z,78.40
2017-08-03T08:31:16.967Z,78.80
2017-08-03T08:33:43.265Z,78.80
2017-08-03T08:36:09.541Z,79.70
2017-08-03T08:38:35.996Z,80.20
2017-08-03T08:41:02.291Z,80.60
2017-08-03T08:43:28.593Z,81.00
2017-08-03T08:45:54.932Z,80.50
2017-08-03T08:48:21.233Z,80.10
2017-08-03T08:50:47.556Z,79.20
2017-08-03T08:53:14.611Z,78.30
2017-08-03T08:55:40.893Z,78.30
2017-08-03T08:58:07.212Z,78.20
2017-08-03T09:00:33.472Z,77.80
2017-08-03T09:03:00.536Z,78.50
2017-08-03T09:05:26.867Z,78.00
2017-08-03T09:07:53.187Z,78.90
2017-08-03T09:10:20.283Z,79.00
2017-08-03T09:12:46.604Z,79.40
2017-08-03T09:15:12.904Z,79.60
2017-08-03T09:17:39.204Z,79.00
2017-08-03T09:20:05.684Z,78.20
2017-08-03T09:22:32.019Z,76.80
2017-08-03T09:24:58.337Z,76.90
2017-08-03T09:27:24.654Z,77.90
2017-08-03T09:29:50.947Z,77.90
2017-08-03T09:32:17.285Z,77.50
2017-08-03T09:34:43.569Z,76.80
2017-08-03T09:37:09.916Z,77.00
2017-08-03T09:39:36.205Z,77.20
2017-08-03T09:42:03.253Z,76.10
2017-08-03T09:44:30.341Z,74.60
2017-08-03T09:46:56.611Z,74.60
2017-08-03T09:49:22.923Z,73.50
2017-08-03T09:51:49.208Z,72.10
2017-08-03T09:54:15.497Z,70.40
2017-08-03T09:56:41.827Z,70.60
2017-08-03T09:59:08.117Z,71.10
2017-08-03T10:01:34.480Z,71.00
2017-08-03T10:04:00.781Z,72.00
2017-08-03T10:06:27.087Z,73.10
2017-08-03T10:08:53.397Z,73.60
2017-08-03T10:11:19.757Z,73.80
2017-08-03T10:13:46.080Z,73.70
2017-08-03T10:16:12.360Z,73.40
2017-08-03T10:18:38.680Z,72.60
2017-08-03T10:21:04.953Z,72.20
2017-08-03T10:23:31.235Z,71.60
2017-08-03T10:25:57.560Z,71.90
2017-08-03T10:28:23.846Z,71.20
2017-08-03T10:30:50.883Z,70.20
2017-08-03T10:33:17.177Z,70.20
2017-08-03T10:35:43.496Z,70.00
2017-08-03T10:38:09.963Z,68.00
2017-08-03T10:40:36.308Z,66.70
2017-08-03T10:43:02.643Z,66.20
2017-08-03T10:45:29.837Z,64.40
2017-08-03T10:47:56.142Z,64.40
2017-08-03T10:50:22.452Z,64.40
2017-08-03T10:52:49.729Z,64.20
2017-08-03T10:55:16.064Z,64.20
2017-08-03T10:57:42.331Z,63.40
2017-08-03T11:00:08.663Z,62.80
2017-08-03T11:02:34.975Z,62.90
2017-08-03T11:05:01.292Z,63.50
2017-08-03T11:07:27.628Z,63.30
2017-08-03T11:09:53.911Z,63.60
2017-08-03T11:12:20.961Z,63.00
2017-08-03T11:14:48.018Z,63.80
2017-08-03T11:17:14.371Z,63.80
2017-08-03T11:19:40.680Z,64.60
2017-08-03T11:22:06.972Z,63.90
2017-08-03T11:24:33.275Z,61.70
2017-08-03T11:26:59.587Z,62.10
2017-08-03T11:29:25.912Z,61.40
2017-08-03T11:31:52.232Z,60.20
2017-08-03T11:34:18.561Z,59.40
2017-08-03T11:36:44.843Z,57.70
2017-08-03T11:39:11.177Z,57.40
2017-08-03T11:41:37.572Z,57.70
2017-08-03T11:44:03.972Z,57.40
2017-08-03T11:46:30.984Z,57.80
2017-08-03T11:48:57.288Z,57.80
2017-08-03T11:51:23.636Z,58.00
2017-08-03T11:53:50.001Z,58.20
2017-08-03T11:56:17.062Z,58.50
2017-08-03T11:58:43.344Z,58.40
2017-08-03T12:01:09.636Z,57.30
2017-08-03T12:03:36.032Z,57.20
2017-08-03T12:06:03.093Z,55.20
2017-08-03T12:08:30.145Z,54.70
2017-08-03T12:10:56.444Z,54.70
2017-08-03T12:13:22.749Z,54.50
2017-08-03T12:15:49.056Z,54.80
2017-08-03T12:18:15.331Z,55.00
2017-08-03T12:20:41.784Z,54.10
2017-08-03T12:23:08.847Z,53.20
2017-08-03T12:25:35.208Z,53.10
2017-08-03T12:28:01.516Z,52.40
2017-08-03T12:30:27.962Z,52.20
2017-08-03T12:32:54.243Z,51.40
2017-08-03T12:35:20.543Z,52.80
2017-08-03T12:37:46.848Z,54.60
2017-08-03T12:40:13.199Z,54.90
2017-08-03T12:42:39.460Z,54.60
2017-08-03T12:45:05.792Z,54.10
2017-08-03T12:47:32.191Z,55.10
2017-08-03T12:49:58.467Z,54.70
2017-08-03T12:52:25.650Z,53.30
2017-08-03T12:54:52.098Z,53.30
2017-08-03T12:57:18.411Z,53.30
2017-08-03T12:59:44.725Z,53.30
2017-08-03T13:02:11.060Z,53.60
2017-08-03T13:04:37.344Z,53.50
2017-08-03T13:07:04.389Z,54.30
2017-08-03T13:09:30.714Z,53.60
2017-08-03T13:11:57.012Z,54.20
2017-08-03T13:14:23.339Z,53.70
2017-08-03T13:16:49.631Z,53.90
2017-08-03T13:19:16.664Z,52.50
2017-08-03T13:21:43.719Z,52.70
2017-08-03T13:24:10.762Z,52.10
2017-08-03T13:26:37.080Z,52.10
2017-08-03T13:29:03.368Z,53.40
2017-08-03T13:31:29.687Z,52.20
2017-08-03T13:33:55.973Z,48.60
2017-08-03T13:36:23.038Z,43.10
2017-08-03T13:38:50.071Z,44.40
2017-08-03T13:41:16.396Z,44.30
2017-08-03T13:43:42.689Z,39.00
2017-08-03T13:46:08.969Z,40.90
2017-08-03T13:48:35.330Z,40.70
2017-08-03T13:51:01.731Z,40.70
2017-08-03T13:53:28.049Z,40.10
2017-08-03T13:55:54.453Z,38.70
2017-08-03T13:58:20.732Z,40.20
2017-08-03T14:00:47.140Z,39.90
2017-08-03T14:03:13.454Z,40.30
2017-08-03T14:05:39.752Z,40.30
2017-08-03T14:08:06.106Z,39.70
2017-08-03T14:10:32.386Z,40.60
2017-08-03T14:12:58.696Z,40.90
2017-08-03T14:15:25.751Z,41.80
2017-08-03T14:17:52.799Z,41.80
2017-08-03T14:20:19.913Z,41.20
2017-08-03T14:22:46.195Z,41.20
2017-08-03T14:25:12.537Z,42.10
2017-08-03T14:27:38.835Z,42.20
2017-08-03T14:30:05.866Z,43.60
2017-08-03T14:32:32.200Z,43.60
2017-08-03T14:34:59.270Z,43.90
2017-08-03T14:37:25.601Z,43.80
2017-08-03T14:39:51.899Z,43.70
2017-08-03T14:42:18.229Z,44.10
2017-08-03T14:44:44.563Z,44.00
2017-08-03T14:47:10.925Z,43.90
2017-08-03T14:49:37.200Z,44.50
2017-08-03T14:52:03.477Z,42.90
2017-08-03T14:54:30.770Z,42.90
2017-08-03T14:56:57.037Z,42.90
2017-08-03T14:59:23.391Z,43.40
2017-08-03T15:01:50.400Z,44.20
2017-08-03T15:04:16.692Z,44.20
2017-08-03T15:06:43.028Z,44.50
2017-08-03T15:09:09.296Z,44.40
2017-08-03T15:11:35.609Z,44.60
2017-08-03T15:14:01.924Z,44.50
2017-08-03T15:16:28.268Z,44.60
2017-08-03T15:18:54.537Z,45.20
2017-08-03T15:21:21.544Z,43.90
2017-08-03T15:23:47.896Z,43.90
2017-08-03T15:26:14.316Z,44.00
2017-08-03T15:28:40.621Z,44.10
2017-08-03T15:31:06.944Z,44.70
2017-08-03T15:33:33.217Z,45.30
2017-08-03T15:36:00.300Z,45.40
2017-08-03T15:38:26.621Z,45.40
2017-08-03T15:40:52.964Z,45.70
2017-08-03T15:43:19.287Z,45.80
2017-08-03T15:45:45.589Z,45.70
2017-08-03T15:48:12.181Z,45.60
2017-08-03T15:50:38.473Z,45.50
2017-08-03T15:53:05.517Z,45.50
2017-08-03T15:55:32.572Z,45.80
2017-08-03T15:57:58.868Z,45.80
2017-08-03T16:00:25.156Z,46.10
2017-08-03T16:02:51.482Z,46.20
2017-08-03T16:05:17.874Z,46.30
2017-08-03T16:07:44.934Z,47.10
2017-08-03T16:10:12.028Z,46.60
2017-08-03T16:12:38.346Z,46.60
2017-08-03T16:15:04.686Z,46.70
2017-08-03T16:17:30.967Z,45.80
2017-08-03T16:19:58.093Z,46.40
2017-08-03T16:22:25.188Z,46.40
2017-08-03T16:24:51.472Z,46.30
2017-08-03T16:27:17.788Z,46.30
2017-08-03T16:29:44.080Z,46.40
2017-08-03T16:32:10.450Z,46.80
2017-08-03T16:34:36.846Z,46.10
2017-08-03T16:37:03.120Z,46.70
2017-08-03T16:39:29.472Z,46.10
2017-08-03T16:41:56.515Z,47.20
2017-08-03T16:44:22.836Z,47.10
2017-08-03T16:46:49.134Z,48.00
2017-08-03T16:49:15.397Z,48.50
2017-08-03T16:51:41.732Z,48.80
2017-08-03T16:54:08.026Z,49.20
2017-08-03T16:56:34.356Z,49.40
2017-08-03T16:59:00.659Z,49.80
2017-08-03T17:01:26.954Z,49.70
2017-08-03T17:03:53.287Z,49.90
2017-08-03T17:06:19.659Z,50.20
2017-08-03T17:08:45.984Z,50.20
2017-08-03T17:11:12.288Z,50.60
2017-08-03T17:13:38.619Z,50.90
2017-08-03T17:16:04.957Z,50.60
2017-08-03T17:18:31.264Z,50.70
2017-08-03T17:20:57.564Z,50.70
2017-08-03T17:23:24.003Z,50.90
2017-08-03T17:25:51.098Z,51.70
2017-08-03T17:28:17.515Z,51.50
2017-08-03T17:30:44.582Z,51.80
2017-08-03T17:33:10.868Z,51.80
2017-08-03T17:35:37.226Z,52.30
2017-08-03T17:38:03.724Z,52.60
2017-08-03T17:40:30.086Z,51.90
2017-08-03T17:42:57.131Z,51.60
2017-08-03T17:45:23.514Z,51.60
2017-08-03T17:47:49.833Z,52.30
2017-08-03T17:50:16.134Z,52.60
2017-08-03T17:52:42.496Z,52.60
2017-08-03T17:55:08.843Z,52.60
2017-08-03T17:57:35.173Z,53.20
2017-08-03T18:00:01.481Z,53.20
2017-08-03T18:02:27.783Z,53.60
2017-08-03T18:04:54.126Z,53.90
2017-08-03T18:07:20.422Z,54.00
2017-08-03T18:09:47.553Z,54.70
2017-08-03T18:12:13.872Z,53.90
2017-08-03T18:14:40.235Z,53.50
2017-08-03T18:17:07.282Z,53.70
2017-08-03T18:19:34.359Z,54.10
2017-08-03T18:22:00.684Z,54.10
2017-08-03T18:24:27.014Z,54.40
2017-08-03T18:26:53.321Z,54.50
2017-08-03T18:29:20.361Z,54.40
2017-08-03T18:31:47.429Z,54.30
2017-08-03T18:34:13.723Z,54.60
2017-08-03T18:36:40.041Z,55.00
2017-08-03T18:39:06.356Z,55.00
2017-08-03T18:41:32.676Z,55.20
2017-08-03T18:43:59.034Z,55.60
2017-08-03T18:46:25.360Z,56.00
2017-08-03T18:48:51.666Z,55.90
2017-08-03T18:51:17.972Z,56.10
2017-08-03T18:53:44.263Z,56.10
2017-08-03T18:56:10.652Z,56.30
2017-08-03T18:58:36.969Z,56.40
2017-08-03T19:01:03.421Z,56.30
2017-08-03T19:03:29.704Z,56.80
2017-08-03T19:05:56.761Z,57.20
2017-08-03T19:08:23.077Z,57.20
2017-08-03T19:10:49.498Z,57.60
2017-08-03T19:13:15.820Z,58.10
2017-08-03T19:15:42.334Z,58.30
2017-08-03T19:18:08.639Z,58.80
2017-08-03T19:20:34.942Z,59.30
2017-08-03T19:23:02.033Z,59.70
2017-08-03T19:25:28.352Z,59.70
2017-08-03T19:27:54.648Z,59.80
2017-08-03T19:30:20.991Z,59.30
2017-08-03T19:32:47.314Z,59.30
2017-08-03T19:35:14.427Z,59.10
2017-08-03T19:37:40.788Z,59.00
2017-08-03T19:40:07.169Z,59.20
2017-08-03T19:42:35.584Z,58.80
2017-08-03T19:45:06.336Z,58.90
2017-08-03T19:47:33.710Z,58.50
2017-08-03T19:50:00.107Z,58.40
2017-08-03T19:52:26.403Z,58.90
2017-08-03T19:54:52.718Z,59.00
2017-08-03T19:57:19.045Z,58.90
2017-08-03T19:59:45.426Z,59.00
2017-08-03T20:02:11.764Z,59.00
2017-08-03T20:04:38.818Z,59.60
2017-08-03T20:07:28.131Z,59.60
2017-08-03T20:09:59.251Z,59.50
2017-08-03T20:12:25.577Z,60.00
2017-08-03T20:14:51.965Z,59.80
2017-08-03T20:17:18.361Z,60.30
2017-08-03T20:19:44.660Z,60.40
2017-08-03T20:22:11.016Z,60.70
2017-08-03T20:24:37.410Z,60.90
2017-08-03T20:27:04.472Z,60.80
2017-08-03T20:29:30.788Z,60.80
2017-08-03T20:34:30.868Z,61.10
2017-08-03T20:36:57.192Z,61.40
2017-08-03T20:39:23.512Z,61.40
2017-08-03T20:41:49.858Z,61.70
2017-08-03T20:44:16.169Z,62.10
2017-08-03T20:46:42.457Z,62.30
2017-08-03T20:49:08.815Z,62.60
2017-08-03T20:51:35.100Z,62.90
2017-08-03T20:54:01.406Z,63.30
2017-08-03T20:56:27.720Z,63.70
2017-08-03T20:58:54.102Z,63.50
2017-08-03T21:01:21.212Z,64.40
2017-08-03T21:03:47.560Z,63.50
2017-08-03T21:06:13.909Z,63.50
2017-08-03T21:08:40.282Z,63.40
2017-08-03T21:11:06.612Z,63.30
2017-08-03T21:13:32.915Z,63.40
2017-08-03T21:15:59.212Z,63.30
2017-08-03T21:18:26.365Z,63.50
2017-08-03T21:20:52.673Z,63.50
2017-08-03T21:23:18.987Z,63.50
2017-08-03T21:25:45.271Z,63.60
2017-08-03T21:28:12.385Z,65.00
2017-08-03T21:30:38.739Z,64.60
2017-08-03T21:33:05.036Z,64.70
2017-08-03T21:35:31.383Z,65.20
2017-08-03T21:37:57.681Z,65.60
2017-08-03T21:40:24.129Z,66.00
2017-08-03T21:42:50.496Z,66.50
2017-08-03T21:45:16.848Z,66.70
2017-08-03T21:47:43.128Z,67.10
2017-08-03T21:50:09.478Z,66.90
2017-08-03T21:52:36.005Z,67.00
2017-08-03T21:55:02.367Z,67.30
2017-08-03T21:57:28.701Z,67.40
2017-08-03T21:59:55.039Z,67.60
2017-08-03T22:02:22.077Z,68.60
2017-08-03T22:04:48.458Z,68.60
2017-08-03T22:07:14.837Z,69.10
2017-08-03T22:09:41.143Z,69.80
2017-08-03T22:12:07.417Z,69.80
2017-08-03T22:14:34.446Z,69.80
2017-08-03T22:17:00.788Z,69.80
2017-08-03T22:19:27.837Z,70.50
2017-08-03T22:21:54.894Z,70.30
2017-08-03T22:24:21.204Z,70.30
2017-08-03T22:26:47.504Z,70.10
2017-08-03T22:29:13.817Z,70.30
2017-08-03T22:31:40.163Z,70.30
2017-08-03T22:34:06.480Z,70.60
2017-08-03T22:36:32.751Z,70.80
2017-08-03T22:38:59.804Z,71.20
2017-08-03T22:41:26.853Z,71.30
2017-08-03T22:43:53.892Z,71.50
2017-08-03T22:46:20.404Z,71.50
2017-08-03T22:48:46.724Z,71.90
2017-08-03T22:51:13.020Z,71.70
2017-08-03T22:53:39.288Z,71.90
2017-08-03T22:56:05.632Z,71.80
2017-08-03T22:58:31.947Z,72.20
2017-08-03T23:00:58.232Z,72.10
2017-08-03T23:03:24.534Z,73.00
2017-08-03T23:05:50.824Z,72.80
2017-08-03T23:08:17.136Z,73.40
2017-08-03T23:10:43.445Z,73.80
2017-08-03T23:13:10.539Z,74.20
2017-08-03T23:15:36.872Z,74.20
2017-08-03T23:18:03.196Z,74.90
2017-08-03T23:20:29.508Z,74.80
2017-08-03T23:22:55.861Z,75.20
2017-08-03T23:25:22.168Z,75.10
2017-08-03T23:27:48.472Z,75.40
2017-08-03T23:30:14.763Z,76.10
2017-08-03T23:32:41.032Z,76.60
2017-08-03T23:35:07.344Z,76.80
2017-08-03T23:37:34.456Z,76.90
2017-08-03T23:40:00.780Z,76.90
2017-08-03T23:42:27.083Z,76.60
2017-08-03T23:44:53.355Z,76.80
2017-08-03T23:47:19.675Z,77.20
2017-08-03T23:49:45.980Z,76.60
2017-08-03T23:52:12.408Z,76.30
2017-08-03T23:54:38.684Z,76.50
2017-08-03T23:57:04.981Z,76.60
2017-08-03T23:59:31.329Z,77.10
